sensor_id;sensor_type;location;lat;lon;timestamp;temperature;humidity
57108;DHT22;42987;52.916;6.542;2023-05-20T00:00:27;10.80;99.90
57108;DHT22;42987;52.916;6.542;2023-05-20T00:02:53;10.70;99.90
57108;DHT22;42987;52.916;6.542;2023-05-20T00:05:19;10.80;99.90
57108;DHT22;42987;52.916;6.542;2023-05-20T00:07:44;10.80;99.90
57108;DHT22;42987;52.916;6.542;2023-05-20T00:10:10;10.70;99.90
57108;DHT22;42987;52.916;6.542;2023-05-20T00:12:37;10.70;99.90
57108;DHT22;42987;52.916;6.542;2023-05-20T00:15:04;10.70;99.90
57108;DHT22;42987;52.916;6.542;2023-05-20T00:17:30;10.60;99.90
57108;DHT22;42987;52.916;6.542;2023-05-20T00:19:55;10.60;99.90
57108;DHT22;42987;52.916;6.542;2023-05-20T00:22:21;10.50;99.90
57108;DHT22;42987;52.916;6.542;2023-05-20T00:24:47;10.50;99.90
57108;DHT22;42987;52.916;6.542;2023-05-20T00:27:13;10.50;99.90
57108;DHT22;42987;52.916;6.542;2023-05-20T00:29:39;10.50;99.90
57108;DHT22;42987;52.916;6.542;2023-05-20T00:32:05;10.50;99.90
57108;DHT22;42987;52.916;6.542;2023-05-20T00:34:31;10.50;99.90
57108;DHT22;42987;52.916;6.542;2023-05-20T00:36:56;10.50;99.90
57108;DHT22;42987;52.916;6.542;2023-05-20T00:39:22;10.50;99.90
57108;DHT22;42987;52.916;6.542;2023-05-20T00:41:48;10.50;99.90
57108;DHT22;42987;52.916;6.542;2023-05-20T00:44:14;10.50;99.90
57108;DHT22;42987;52.916;6.542;2023-05-20T00:46:40;10.50;99.90
57108;DHT22;42987;52.916;6.542;2023-05-20T00:49:06;10.50;99.90
57108;DHT22;42987;52.916;6.542;2023-05-20T00:51:33;10.50;99.90
57108;DHT22;42987;52.916;6.542;2023-05-20T00:54:02;10.40;99.90
57108;DHT22;42987;52.916;6.542;2023-05-20T00:56:28;10.40;99.90
57108;DHT22;42987;52.916;6.542;2023-05-20T00:58:55;10.40;99.90
57108;DHT22;42987;52.916;6.542;2023-05-20T01:01:22;10.40;99.90
57108;DHT22;42987;52.916;6.542;2023-05-20T01:03:54;10.40;99.90
57108;DHT22;42987;52.916;6.542;2023-05-20T01:06:19;10.40;99.90
57108;DHT22;42987;52.916;6.542;2023-05-20T01:08:45;10.30;99.90
57108;DHT22;42987;52.916;6.542;2023-05-20T01:11:31;10.30;99.90
57108;DHT22;42987;52.916;6.542;2023-05-20T01:14:01;10.30;99.90
57108;DHT22;42987;52.916;6.542;2023-05-20T01:16:31;10.30;99.90
57108;DHT22;42987;52.916;6.542;2023-05-20T01:18:58;10.30;99.90
57108;DHT22;42987;52.916;6.542;2023-05-20T01:21:29;10.30;99.90
57108;DHT22;42987;52.916;6.542;2023-05-20T01:23:56;10.30;99.90
57108;DHT22;42987;52.916;6.542;2023-05-20T01:26:22;10.30;99.90
57108;DHT22;42987;52.916;6.542;2023-05-20T01:28:54;10.40;99.90
57108;DHT22;42987;52.916;6.542;2023-05-20T01:31:31;10.40;99.90
57108;DHT22;42987;52.916;6.542;2023-05-20T01:33:58;10.40;99.90
57108;DHT22;42987;52.916;6.542;2023-05-20T01:36:25;10.50;99.90
57108;DHT22;42987;52.916;6.542;2023-05-20T01:38:52;10.40;99.90
57108;DHT22;42987;52.916;6.542;2023-05-20T01:41:20;10.40;99.90
57108;DHT22;42987;52.916;6.542;2023-05-20T01:43:47;10.50;99.90
57108;DHT22;42987;52.916;6.542;2023-05-20T01:46:14;10.50;99.90
57108;DHT22;42987;52.916;6.542;2023-05-20T01:48:40;10.50;99.90
57108;DHT22;42987;52.916;6.542;2023-05-20T01:51:08;10.50;99.90
57108;DHT22;42987;52.916;6.542;2023-05-20T01:53:34;10.50;99.90
57108;DHT22;42987;52.916;6.542;2023-05-20T01:56:00;10.40;99.90
57108;DHT22;42987;52.916;6.542;2023-05-20T01:58:26;10.40;99.90
57108;DHT22;42987;52.916;6.542;2023-05-20T02:00:51;10.40;99.90
57108;DHT22;42987;52.916;6.542;2023-05-20T02:03:17;10.40;99.90
57108;DHT22;42987;52.916;6.542;2023-05-20T02:05:43;10.40;99.90
57108;DHT22;42987;52.916;6.542;2023-05-20T02:08:09;10.40;99.90
57108;DHT22;42987;52.916;6.542;2023-05-20T02:10:34;10.30;99.90
57108;DHT22;42987;52.916;6.542;2023-05-20T02:13:00;10.30;99.90
57108;DHT22;42987;52.916;6.542;2023-05-20T02:15:26;10.30;99.90
57108;DHT22;42987;52.916;6.542;2023-05-20T02:17:52;10.30;99.90
57108;DHT22;42987;52.916;6.542;2023-05-20T02:20:21;10.30;99.90
57108;DHT22;42987;52.916;6.542;2023-05-20T02:22:52;10.20;99.90
57108;DHT22;42987;52.916;6.542;2023-05-20T02:25:18;10.20;99.90
57108;DHT22;42987;52.916;6.542;2023-05-20T02:27:44;10.20;99.90
57108;DHT22;42987;52.916;6.542;2023-05-20T02:30:10;10.20;99.90
57108;DHT22;42987;52.916;6.542;2023-05-20T02:32:36;10.20;99.90
57108;DHT22;42987;52.916;6.542;2023-05-20T02:35:02;10.20;99.90
57108;DHT22;42987;52.916;6.542;2023-05-20T02:37:28;10.20;99.90
57108;DHT22;42987;52.916;6.542;2023-05-20T02:39:54;10.20;99.90
57108;DHT22;42987;52.916;6.542;2023-05-20T02:42:23;10.20;99.90
57108;DHT22;42987;52.916;6.542;2023-05-20T02:44:49;10.10;99.90
57108;DHT22;42987;52.916;6.542;2023-05-20T02:47:15;10.10;99.90
57108;DHT22;42987;52.916;6.542;2023-05-20T02:49:40;10.10;99.90
57108;DHT22;42987;52.916;6.542;2023-05-20T02:52:06;10.10;99.90
57108;DHT22;42987;52.916;6.542;2023-05-20T02:54:33;10.10;99.90
57108;DHT22;42987;52.916;6.542;2023-05-20T02:56:59;10.10;99.90
57108;DHT22;42987;52.916;6.542;2023-05-20T02:59:25;10.10;99.90
57108;DHT22;42987;52.916;6.542;2023-05-20T03:01:51;10.10;99.90
57108;DHT22;42987;52.916;6.542;2023-05-20T03:04:16;10.10;99.90
57108;DHT22;42987;52.916;6.542;2023-05-20T03:06:44;10.10;99.90
57108;DHT22;42987;52.916;6.542;2023-05-20T03:09:10;10.10;99.90
57108;DHT22;42987;52.916;6.542;2023-05-20T03:11:36;10.00;99.90
57108;DHT22;42987;52.916;6.542;2023-05-20T03:14:02;10.00;99.90
57108;DHT22;42987;52.916;6.542;2023-05-20T03:16:28;10.00;99.90
57108;DHT22;42987;52.916;6.542;2023-05-20T03:18:54;10.00;99.90
57108;DHT22;42987;52.916;6.542;2023-05-20T03:21:19;10.00;99.90
57108;DHT22;42987;52.916;6.542;2023-05-20T03:23:48;10.00;99.90
57108;DHT22;42987;52.916;6.542;2023-05-20T03:26:13;10.00;99.90
57108;DHT22;42987;52.916;6.542;2023-05-20T03:28:39;10.00;99.90
57108;DHT22;42987;52.916;6.542;2023-05-20T03:31:08;10.00;99.90
57108;DHT22;42987;52.916;6.542;2023-05-20T03:33:34;10.10;99.90
57108;DHT22;42987;52.916;6.542;2023-05-20T03:36:00;10.10;99.90
57108;DHT22;42987;52.916;6.542;2023-05-20T03:38:26;10.10;99.90
57108;DHT22;42987;52.916;6.542;2023-05-20T03:40:52;10.00;99.90
57108;DHT22;42987;52.916;6.542;2023-05-20T03:43:18;10.00;99.90
57108;DHT22;42987;52.916;6.542;2023-05-20T03:45:44;10.00;99.90
57108;DHT22;42987;52.916;6.542;2023-05-20T03:48:09;10.00;99.90
57108;DHT22;42987;52.916;6.542;2023-05-20T03:50:41;10.00;99.90
57108;DHT22;42987;52.916;6.542;2023-05-20T03:53:07;10.00;99.90
57108;DHT22;42987;52.916;6.542;2023-05-20T03:55:33;10.00;99.90
57108;DHT22;42987;52.916;6.542;2023-05-20T03:57:59;10.00;99.90
57108;DHT22;42987;52.916;6.542;2023-05-20T04:00:25;10.00;99.90
57108;DHT22;42987;52.916;6.542;2023-05-20T04:02:52;10.00;99.90
57108;DHT22;42987;52.916;6.542;2023-05-20T04:05:18;10.00;99.90
57108;DHT22;42987;52.916;6.542;2023-05-20T04:07:44;10.00;99.90
57108;DHT22;42987;52.916;6.542;2023-05-20T04:10:10;10.00;99.90
57108;DHT22;42987;52.916;6.542;2023-05-20T04:12:37;10.00;99.90
57108;DHT22;42987;52.916;6.542;2023-05-20T04:15:03;10.00;99.90
57108;DHT22;42987;52.916;6.542;2023-05-20T04:17:29;10.10;99.90
57108;DHT22;42987;52.916;6.542;2023-05-20T04:19:56;10.10;99.90
57108;DHT22;42987;52.916;6.542;2023-05-20T04:22:22;10.20;99.90
57108;DHT22;42987;52.916;6.542;2023-05-20T04:24:48;10.20;99.90
57108;DHT22;42987;52.916;6.542;2023-05-20T04:27:14;10.20;99.90
57108;DHT22;42987;52.916;6.542;2023-05-20T04:29:41;10.20;99.90
57108;DHT22;42987;52.916;6.542;2023-05-20T04:32:15;10.30;99.90
57108;DHT22;42987;52.916;6.542;2023-05-20T04:34:41;10.30;99.90
57108;DHT22;42987;52.916;6.542;2023-05-20T04:37:10;10.30;99.90
57108;DHT22;42987;52.916;6.542;2023-05-20T04:39:36;10.40;99.90
57108;DHT22;42987;52.916;6.542;2023-05-20T04:42:06;10.40;99.90
57108;DHT22;42987;52.916;6.542;2023-05-20T04:44:34;10.60;99.90
57108;DHT22;42987;52.916;6.542;2023-05-20T04:47:00;10.50;99.90
57108;DHT22;42987;52.916;6.542;2023-05-20T04:49:26;10.60;99.90
57108;DHT22;42987;52.916;6.542;2023-05-20T04:51:54;10.60;99.90
57108;DHT22;42987;52.916;6.542;2023-05-20T04:54:23;10.70;99.90
57108;DHT22;42987;52.916;6.542;2023-05-20T04:56:49;10.80;99.90
57108;DHT22;42987;52.916;6.542;2023-05-20T04:59:15;10.80;99.90
57108;DHT22;42987;52.916;6.542;2023-05-20T05:01:44;10.90;99.90
57108;DHT22;42987;52.916;6.542;2023-05-20T05:04:10;11.00;99.90
57108;DHT22;42987;52.916;6.542;2023-05-20T05:06:36;11.10;99.90
57108;DHT22;42987;52.916;6.542;2023-05-20T05:09:01;11.20;99.90
57108;DHT22;42987;52.916;6.542;2023-05-20T05:11:27;11.30;99.90
57108;DHT22;42987;52.916;6.542;2023-05-20T05:13:54;11.40;99.90
57108;DHT22;42987;52.916;6.542;2023-05-20T05:16:20;11.50;99.90
57108;DHT22;42987;52.916;6.542;2023-05-20T05:18:46;11.60;99.90
57108;DHT22;42987;52.916;6.542;2023-05-20T05:21:11;11.70;99.90
57108;DHT22;42987;52.916;6.542;2023-05-20T05:23:37;11.70;99.90
57108;DHT22;42987;52.916;6.542;2023-05-20T05:26:03;11.80;99.90
57108;DHT22;42987;52.916;6.542;2023-05-20T05:28:29;11.80;99.90
57108;DHT22;42987;52.916;6.542;2023-05-20T05:30:55;11.80;99.90
57108;DHT22;42987;52.916;6.542;2023-05-20T05:33:21;11.70;99.90
57108;DHT22;42987;52.916;6.542;2023-05-20T05:35:47;11.70;99.90
57108;DHT22;42987;52.916;6.542;2023-05-20T05:38:13;11.60;99.90
57108;DHT22;42987;52.916;6.542;2023-05-20T05:40:40;11.60;99.90
57108;DHT22;42987;52.916;6.542;2023-05-20T05:43:05;11.70;99.90
57108;DHT22;42987;52.916;6.542;2023-05-20T05:45:31;11.80;99.90
57108;DHT22;42987;52.916;6.542;2023-05-20T05:47:57;11.90;99.90
57108;DHT22;42987;52.916;6.542;2023-05-20T05:50:23;12.00;99.90
57108;DHT22;42987;52.916;6.542;2023-05-20T05:52:49;12.00;99.90
57108;DHT22;42987;52.916;6.542;2023-05-20T05:55:15;12.10;99.90
57108;DHT22;42987;52.916;6.542;2023-05-20T05:57:43;12.20;99.90
57108;DHT22;42987;52.916;6.542;2023-05-20T06:00:09;12.20;99.90
57108;DHT22;42987;52.916;6.542;2023-05-20T06:02:35;12.30;99.90
57108;DHT22;42987;52.916;6.542;2023-05-20T06:05:04;12.40;99.90
57108;DHT22;42987;52.916;6.542;2023-05-20T06:07:30;12.40;99.90
57108;DHT22;42987;52.916;6.542;2023-05-20T06:09:56;12.50;99.90
57108;DHT22;42987;52.916;6.542;2023-05-20T06:12:22;12.60;99.90
57108;DHT22;42987;52.916;6.542;2023-05-20T06:14:48;12.60;99.90
57108;DHT22;42987;52.916;6.542;2023-05-20T06:17:13;12.70;99.90
57108;DHT22;42987;52.916;6.542;2023-05-20T06:19:39;12.80;99.90
57108;DHT22;42987;52.916;6.542;2023-05-20T06:22:05;12.90;99.90
57108;DHT22;42987;52.916;6.542;2023-05-20T06:24:32;12.90;99.90
57108;DHT22;42987;52.916;6.542;2023-05-20T06:26:58;13.00;99.90
57108;DHT22;42987;52.916;6.542;2023-05-20T06:29:24;13.00;99.90
57108;DHT22;42987;52.916;6.542;2023-05-20T06:31:53;13.00;99.90
57108;DHT22;42987;52.916;6.542;2023-05-20T06:34:19;13.10;99.90
57108;DHT22;42987;52.916;6.542;2023-05-20T06:36:44;13.10;99.90
57108;DHT22;42987;52.916;6.542;2023-05-20T06:39:10;13.20;99.90
57108;DHT22;42987;52.916;6.542;2023-05-20T06:41:40;13.30;99.90
57108;DHT22;42987;52.916;6.542;2023-05-20T06:44:06;13.30;99.90
57108;DHT22;42987;52.916;6.542;2023-05-20T06:46:33;13.40;99.90
57108;DHT22;42987;52.916;6.542;2023-05-20T06:48:58;13.50;99.90
57108;DHT22;42987;52.916;6.542;2023-05-20T06:51:25;13.50;99.90
57108;DHT22;42987;52.916;6.542;2023-05-20T06:53:51;13.60;99.90
57108;DHT22;42987;52.916;6.542;2023-05-20T06:56:17;13.60;99.90
57108;DHT22;42987;52.916;6.542;2023-05-20T06:58:43;13.70;99.90
57108;DHT22;42987;52.916;6.542;2023-05-20T07:01:09;13.80;99.90
57108;DHT22;42987;52.916;6.542;2023-05-20T07:03:35;13.80;99.90
57108;DHT22;42987;52.916;6.542;2023-05-20T07:06:01;13.80;99.90
57108;DHT22;42987;52.916;6.542;2023-05-20T07:08:27;13.90;99.90
57108;DHT22;42987;52.916;6.542;2023-05-20T07:10:55;14.10;99.90
57108;DHT22;42987;52.916;6.542;2023-05-20T07:13:21;14.20;99.90
57108;DHT22;42987;52.916;6.542;2023-05-20T07:15:48;14.30;99.90
57108;DHT22;42987;52.916;6.542;2023-05-20T07:18:14;14.40;99.90
57108;DHT22;42987;52.916;6.542;2023-05-20T07:20:40;14.40;99.90
57108;DHT22;42987;52.916;6.542;2023-05-20T07:23:06;14.40;99.90
57108;DHT22;42987;52.916;6.542;2023-05-20T07:25:32;14.50;99.90
57108;DHT22;42987;52.916;6.542;2023-05-20T07:27:58;14.60;99.90
57108;DHT22;42987;52.916;6.542;2023-05-20T07:30:25;14.70;99.90
57108;DHT22;42987;52.916;6.542;2023-05-20T07:32:51;14.80;99.90
57108;DHT22;42987;52.916;6.542;2023-05-20T07:35:17;14.90;99.90
57108;DHT22;42987;52.916;6.542;2023-05-20T07:37:43;15.00;99.80
57108;DHT22;42987;52.916;6.542;2023-05-20T07:40:09;15.10;99.80
57108;DHT22;42987;52.916;6.542;2023-05-20T07:42:35;15.20;99.90
57108;DHT22;42987;52.916;6.542;2023-05-20T07:45:01;15.30;98.60
57108;DHT22;42987;52.916;6.542;2023-05-20T07:47:27;15.30;99.50
57108;DHT22;42987;52.916;6.542;2023-05-20T07:49:53;15.50;98.10
57108;DHT22;42987;52.916;6.542;2023-05-20T07:52:18;15.50;97.50
57108;DHT22;42987;52.916;6.542;2023-05-20T07:54:44;15.50;97.70
57108;DHT22;42987;52.916;6.542;2023-05-20T07:57:10;15.60;97.70
57108;DHT22;42987;52.916;6.542;2023-05-20T07:59:36;15.70;98.00
57108;DHT22;42987;52.916;6.542;2023-05-20T08:02:02;15.80;97.50
57108;DHT22;42987;52.916;6.542;2023-05-20T08:04:28;15.90;96.00
57108;DHT22;42987;52.916;6.542;2023-05-20T08:06:54;15.90;96.70
57108;DHT22;42987;52.916;6.542;2023-05-20T08:09:20;16.00;97.10
57108;DHT22;42987;52.916;6.542;2023-05-20T08:11:46;16.10;96.70
57108;DHT22;42987;52.916;6.542;2023-05-20T08:14:12;16.20;96.80
57108;DHT22;42987;52.916;6.542;2023-05-20T08:16:37;16.30;96.40
57108;DHT22;42987;52.916;6.542;2023-05-20T08:19:04;16.40;95.80
57108;DHT22;42987;52.916;6.542;2023-05-20T08:21:29;16.50;95.40
57108;DHT22;42987;52.916;6.542;2023-05-20T08:23:55;16.60;95.10
57108;DHT22;42987;52.916;6.542;2023-05-20T08:26:21;16.70;96.00
57108;DHT22;42987;52.916;6.542;2023-05-20T08:28:47;16.80;95.20
57108;DHT22;42987;52.916;6.542;2023-05-20T08:31:13;16.80;94.20
57108;DHT22;42987;52.916;6.542;2023-05-20T08:33:39;16.90;94.60
57108;DHT22;42987;52.916;6.542;2023-05-20T08:36:06;17.00;94.80
57108;DHT22;42987;52.916;6.542;2023-05-20T08:38:32;17.10;94.30
57108;DHT22;42987;52.916;6.542;2023-05-20T08:40:58;17.10;94.70
57108;DHT22;42987;52.916;6.542;2023-05-20T08:43:25;17.30;93.50
57108;DHT22;42987;52.916;6.542;2023-05-20T08:45:51;17.30;93.00
57108;DHT22;42987;52.916;6.542;2023-05-20T08:48:17;17.30;92.70
57108;DHT22;42987;52.916;6.542;2023-05-20T08:50:53;17.30;92.40
57108;DHT22;42987;52.916;6.542;2023-05-20T08:53:21;17.40;92.80
57108;DHT22;42987;52.916;6.542;2023-05-20T08:55:55;17.50;92.60
57108;DHT22;42987;52.916;6.542;2023-05-20T08:58:23;17.50;91.80
57108;DHT22;42987;52.916;6.542;2023-05-20T09:00:49;17.60;90.90
57108;DHT22;42987;52.916;6.542;2023-05-20T09:03:16;17.70;89.00
57108;DHT22;42987;52.916;6.542;2023-05-20T09:05:42;17.60;89.80
57108;DHT22;42987;52.916;6.542;2023-05-20T09:08:09;17.60;90.10
57108;DHT22;42987;52.916;6.542;2023-05-20T09:10:36;17.70;91.10
57108;DHT22;42987;52.916;6.542;2023-05-20T09:13:03;17.80;89.00
57108;DHT22;42987;52.916;6.542;2023-05-20T09:15:33;17.80;88.40
57108;DHT22;42987;52.916;6.542;2023-05-20T09:18:02;17.90;89.40
57108;DHT22;42987;52.916;6.542;2023-05-20T09:20:28;17.90;88.30
57108;DHT22;42987;52.916;6.542;2023-05-20T09:23:01;18.00;88.00
57108;DHT22;42987;52.916;6.542;2023-05-20T09:25:27;18.20;88.90
57108;DHT22;42987;52.916;6.542;2023-05-20T09:27:53;18.30;88.20
57108;DHT22;42987;52.916;6.542;2023-05-20T09:30:21;18.40;87.00
57108;DHT22;42987;52.916;6.542;2023-05-20T09:32:57;18.40;87.80
57108;DHT22;42987;52.916;6.542;2023-05-20T09:35:24;18.50;84.50
57108;DHT22;42987;52.916;6.542;2023-05-20T09:37:56;18.50;84.90
57108;DHT22;42987;52.916;6.542;2023-05-20T09:40:26;18.60;86.40
57108;DHT22;42987;52.916;6.542;2023-05-20T09:43:03;18.70;84.70
57108;DHT22;42987;52.916;6.542;2023-05-20T09:45:29;18.70;81.40
57108;DHT22;42987;52.916;6.542;2023-05-20T09:47:56;18.60;84.40
57108;DHT22;42987;52.916;6.542;2023-05-20T09:50:23;18.60;83.50
57108;DHT22;42987;52.916;6.542;2023-05-20T09:52:53;18.60;81.50
57108;DHT22;42987;52.916;6.542;2023-05-20T09:55:19;18.80;78.10
57108;DHT22;42987;52.916;6.542;2023-05-20T09:57:48;18.80;77.50
57108;DHT22;42987;52.916;6.542;2023-05-20T10:00:15;18.80;76.80
57108;DHT22;42987;52.916;6.542;2023-05-20T10:02:49;18.80;75.40
57108;DHT22;42987;52.916;6.542;2023-05-20T10:05:27;18.90;74.40
57108;DHT22;42987;52.916;6.542;2023-05-20T10:18:54;19.30;72.70
57108;DHT22;42987;52.916;6.542;2023-05-20T10:21:23;19.20;70.90
57108;DHT22;42987;52.916;6.542;2023-05-20T10:23:50;19.00;71.30
57108;DHT22;42987;52.916;6.542;2023-05-20T10:26:16;18.70;72.80
57108;DHT22;42987;52.916;6.542;2023-05-20T10:28:43;18.70;74.30
57108;DHT22;42987;52.916;6.542;2023-05-20T10:31:22;18.60;74.30
57108;DHT22;42987;52.916;6.542;2023-05-20T10:33:51;18.70;75.30
57108;DHT22;42987;52.916;6.542;2023-05-20T10:36:27;18.80;73.20
57108;DHT22;42987;52.916;6.542;2023-05-20T10:38:58;18.80;73.60
57108;DHT22;42987;52.916;6.542;2023-05-20T10:41:25;18.90;73.90
57108;DHT22;42987;52.916;6.542;2023-05-20T10:43:59;18.90;73.70
57108;DHT22;42987;52.916;6.542;2023-05-20T10:46:25;18.80;74.70
57108;DHT22;42987;52.916;6.542;2023-05-20T10:48:51;18.80;72.90
57108;DHT22;42987;52.916;6.542;2023-05-20T10:51:17;18.70;73.70
57108;DHT22;42987;52.916;6.542;2023-05-20T10:53:45;18.70;72.00
57108;DHT22;42987;52.916;6.542;2023-05-20T10:56:18;18.70;73.30
57108;DHT22;42987;52.916;6.542;2023-05-20T10:58:44;18.60;73.50
57108;DHT22;42987;52.916;6.542;2023-05-20T11:01:11;18.60;73.90
57108;DHT22;42987;52.916;6.542;2023-05-20T11:03:39;18.70;73.80
57108;DHT22;42987;52.916;6.542;2023-05-20T11:06:18;18.70;74.40
57108;DHT22;42987;52.916;6.542;2023-05-20T11:08:44;18.90;71.40
57108;DHT22;42987;52.916;6.542;2023-05-20T11:11:14;18.90;72.50
57108;DHT22;42987;52.916;6.542;2023-05-20T11:13:40;19.00;73.00
57108;DHT22;42987;52.916;6.542;2023-05-20T11:16:06;19.30;72.20
57108;DHT22;42987;52.916;6.542;2023-05-20T11:18:32;19.50;69.20
57108;DHT22;42987;52.916;6.542;2023-05-20T11:21:01;19.50;70.10
57108;DHT22;42987;52.916;6.542;2023-05-20T11:23:28;19.40;70.90
57108;DHT22;42987;52.916;6.542;2023-05-20T11:25:55;19.40;69.90
57108;DHT22;42987;52.916;6.542;2023-05-20T11:28:22;19.40;71.70
57108;DHT22;42987;52.916;6.542;2023-05-20T11:30:50;19.50;68.40
57108;DHT22;42987;52.916;6.542;2023-05-20T11:33:16;19.50;68.10
57108;DHT22;42987;52.916;6.542;2023-05-20T11:35:47;19.50;69.90
57108;DHT22;42987;52.916;6.542;2023-05-20T11:38:14;19.50;69.70
57108;DHT22;42987;52.916;6.542;2023-05-20T11:40:44;19.40;69.10
57108;DHT22;42987;52.916;6.542;2023-05-20T11:43:12;19.30;69.20
57108;DHT22;42987;52.916;6.542;2023-05-20T11:45:56;19.30;70.30
57108;DHT22;42987;52.916;6.542;2023-05-20T11:48:26;19.40;68.70
57108;DHT22;42987;52.916;6.542;2023-05-20T11:50:53;19.50;69.00
57108;DHT22;42987;52.916;6.542;2023-05-20T11:53:20;19.60;70.00
57108;DHT22;42987;52.916;6.542;2023-05-20T11:55:52;19.80;68.30
57108;DHT22;42987;52.916;6.542;2023-05-20T11:58:25;19.80;67.40
57108;DHT22;42987;52.916;6.542;2023-05-20T12:00:51;19.70;69.40
57108;DHT22;42987;52.916;6.542;2023-05-20T12:03:17;19.60;68.60
57108;DHT22;42987;52.916;6.542;2023-05-20T12:05:43;19.30;69.00
57108;DHT22;42987;52.916;6.542;2023-05-20T12:08:09;19.20;68.60
57108;DHT22;42987;52.916;6.542;2023-05-20T12:10:35;19.10;70.40
57108;DHT22;42987;52.916;6.542;2023-05-20T12:13:04;19.10;69.70
57108;DHT22;42987;52.916;6.542;2023-05-20T12:15:36;19.10;69.70
57108;DHT22;42987;52.916;6.542;2023-05-20T12:18:02;19.20;69.00
57108;DHT22;42987;52.916;6.542;2023-05-20T12:20:29;19.30;69.80
57108;DHT22;42987;52.916;6.542;2023-05-20T12:22:59;19.50;70.80
57108;DHT22;42987;52.916;6.542;2023-05-20T12:25:24;19.70;68.60
57108;DHT22;42987;52.916;6.542;2023-05-20T12:27:51;19.70;69.70
57108;DHT22;42987;52.916;6.542;2023-05-20T12:30:18;19.80;67.70
57108;DHT22;42987;52.916;6.542;2023-05-20T12:32:46;19.60;68.20
57108;DHT22;42987;52.916;6.542;2023-05-20T12:35:12;19.60;68.90
57108;DHT22;42987;52.916;6.542;2023-05-20T12:37:38;19.70;67.90
57108;DHT22;42987;52.916;6.542;2023-05-20T12:40:06;19.60;67.50
57108;DHT22;42987;52.916;6.542;2023-05-20T12:42:36;19.60;67.40
57108;DHT22;42987;52.916;6.542;2023-05-20T12:45:03;19.50;67.80
57108;DHT22;42987;52.916;6.542;2023-05-20T12:47:32;19.40;67.80
57108;DHT22;42987;52.916;6.542;2023-05-20T12:49:58;19.30;69.50
57108;DHT22;42987;52.916;6.542;2023-05-20T12:52:25;19.40;68.60
57108;DHT22;42987;52.916;6.542;2023-05-20T12:54:54;19.40;68.40
57108;DHT22;42987;52.916;6.542;2023-05-20T12:57:24;19.30;68.90
57108;DHT22;42987;52.916;6.542;2023-05-20T12:59:53;19.30;69.50
57108;DHT22;42987;52.916;6.542;2023-05-20T13:02:19;19.40;68.70
57108;DHT22;42987;52.916;6.542;2023-05-20T13:04:45;19.40;67.80
57108;DHT22;42987;52.916;6.542;2023-05-20T13:07:11;19.40;67.90
57108;DHT22;42987;52.916;6.542;2023-05-20T13:09:37;19.30;70.30
57108;DHT22;42987;52.916;6.542;2023-05-20T13:12:03;19.50;70.90
57108;DHT22;42987;52.916;6.542;2023-05-20T13:14:28;19.70;68.70
57108;DHT22;42987;52.916;6.542;2023-05-20T13:16:54;19.80;68.40
57108;DHT22;42987;52.916;6.542;2023-05-20T13:19:23;19.80;69.20
57108;DHT22;42987;52.916;6.542;2023-05-20T13:21:53;19.90;68.40
57108;DHT22;42987;52.916;6.542;2023-05-20T13:24:19;20.00;69.60
57108;DHT22;42987;52.916;6.542;2023-05-20T13:26:45;20.40;66.50
57108;DHT22;42987;52.916;6.542;2023-05-20T13:29:12;20.50;64.20
57108;DHT22;42987;52.916;6.542;2023-05-20T13:31:38;20.30;64.80
57108;DHT22;42987;52.916;6.542;2023-05-20T13:34:04;20.10;65.20
57108;DHT22;42987;52.916;6.542;2023-05-20T13:36:30;20.10;64.40
57108;DHT22;42987;52.916;6.542;2023-05-20T13:38:56;20.00;65.70
57108;DHT22;42987;52.916;6.542;2023-05-20T13:41:23;20.10;66.40
57108;DHT22;42987;52.916;6.542;2023-05-20T13:43:49;20.30;67.50
57108;DHT22;42987;52.916;6.542;2023-05-20T13:46:15;20.50;63.80
57108;DHT22;42987;52.916;6.542;2023-05-20T13:48:41;20.50;64.20
57108;DHT22;42987;52.916;6.542;2023-05-20T13:51:07;20.50;64.10
57108;DHT22;42987;52.916;6.542;2023-05-20T13:53:33;20.40;63.20
57108;DHT22;42987;52.916;6.542;2023-05-20T13:55:58;20.30;64.80
57108;DHT22;42987;52.916;6.542;2023-05-20T13:58:24;20.20;66.20
57108;DHT22;42987;52.916;6.542;2023-05-20T14:00:53;20.20;66.20
57108;DHT22;42987;52.916;6.542;2023-05-20T14:03:19;20.00;66.00
57108;DHT22;42987;52.916;6.542;2023-05-20T14:05:44;19.90;66.60
57108;DHT22;42987;52.916;6.542;2023-05-20T14:08:11;19.80;66.80
57108;DHT22;42987;52.916;6.542;2023-05-20T14:10:37;19.70;66.10
57108;DHT22;42987;52.916;6.542;2023-05-20T14:13:02;19.70;65.70
57108;DHT22;42987;52.916;6.542;2023-05-20T14:15:28;19.70;67.00
57108;DHT22;42987;52.916;6.542;2023-05-20T14:17:56;19.80;67.10
57108;DHT22;42987;52.916;6.542;2023-05-20T14:20:23;19.90;66.60
57108;DHT22;42987;52.916;6.542;2023-05-20T14:22:49;19.80;67.20
57108;DHT22;42987;52.916;6.542;2023-05-20T14:25:15;19.70;66.60
57108;DHT22;42987;52.916;6.542;2023-05-20T14:27:41;19.60;66.90
57108;DHT22;42987;52.916;6.542;2023-05-20T14:30:07;19.70;67.90
57108;DHT22;42987;52.916;6.542;2023-05-20T14:32:33;19.80;66.60
57108;DHT22;42987;52.916;6.542;2023-05-20T14:34:59;19.70;66.40
57108;DHT22;42987;52.916;6.542;2023-05-20T14:37:25;19.50;67.60
57108;DHT22;42987;52.916;6.542;2023-05-20T14:39:53;19.40;67.50
57108;DHT22;42987;52.916;6.542;2023-05-20T14:42:19;19.30;68.00
57108;DHT22;42987;52.916;6.542;2023-05-20T14:44:45;19.20;67.20
57108;DHT22;42987;52.916;6.542;2023-05-20T14:47:10;19.20;67.70
57108;DHT22;42987;52.916;6.542;2023-05-20T14:49:36;19.20;68.20
57108;DHT22;42987;52.916;6.542;2023-05-20T14:52:04;19.20;68.40
57108;DHT22;42987;52.916;6.542;2023-05-20T14:54:32;19.30;67.00
57108;DHT22;42987;52.916;6.542;2023-05-20T14:56:58;19.30;68.10
57108;DHT22;42987;52.916;6.542;2023-05-20T14:59:24;19.30;68.60
57108;DHT22;42987;52.916;6.542;2023-05-20T15:01:53;19.20;68.20
57108;DHT22;42987;52.916;6.542;2023-05-20T15:04:18;19.10;69.00
57108;DHT22;42987;52.916;6.542;2023-05-20T15:06:44;19.10;69.10
57108;DHT22;42987;52.916;6.542;2023-05-20T15:09:10;19.00;69.10
57108;DHT22;42987;52.916;6.542;2023-05-20T15:11:36;18.90;69.20
57108;DHT22;42987;52.916;6.542;2023-05-20T15:14:02;18.90;69.80
57108;DHT22;42987;52.916;6.542;2023-05-20T15:16:27;18.90;70.10
57108;DHT22;42987;52.916;6.542;2023-05-20T15:18:53;18.90;69.60
57108;DHT22;42987;52.916;6.542;2023-05-20T15:21:19;18.90;69.90
57108;DHT22;42987;52.916;6.542;2023-05-20T15:23:48;18.90;70.50
57108;DHT22;42987;52.916;6.542;2023-05-20T15:26:14;19.00;70.10
57108;DHT22;42987;52.916;6.542;2023-05-20T15:28:40;19.00;70.70
57108;DHT22;42987;52.916;6.542;2023-05-20T15:31:06;19.00;70.30
57108;DHT22;42987;52.916;6.542;2023-05-20T15:33:33;18.90;70.20
57108;DHT22;42987;52.916;6.542;2023-05-20T15:35:58;18.90;70.60
57108;DHT22;42987;52.916;6.542;2023-05-20T15:38:24;18.90;70.10